Terminal Aerodrome Forecast
Issued by NWS Tuscon, AZ

Home | Current Version | Previous Version | Text Only | Print | Product List | Glossary On
Versions: 1 2 3 4 5 6 7 8 9 10 11 12 13 14
740
FTUS45 KTWC 061720
TAFDUG
TAF
KDUG 061720Z 0618/0718 18010KT P6SM FEW120 SCT200
     FM061900 22015G23KT P6SM FEW120 BKN200
     FM070100 20011KT P6SM BKN200
     FM071100 VRB04KT P6SM SCT200=

USA.gov is the U.S. government's official web portal to all federal, state and local government web resources and services.